Time;durP1;ratioP1;P1;durP2;ratioP2;P2;SDS_P1;SDS_P2;PMS_P1;PMS_P2;Temp;Humidity;BMP_temperature;BMP_pressure;BME280_temperature;BME280_humidity;BME280_pressure;Samples;Min_cycle;Max_cycle;Signal;HPM_P1;HPM_P2
2022/11/20 00:01:42;;;;;;;25.30;10.80;;;;;;;-0.84;100.00;100107.82;3680986;78;32881;-82
2022/11/20 00:06:43;;;;;;;22.50;11.17;;;;;;;-0.83;100.00;100103.47;3682279;78;99156;-82
2022/11/20 00:11:44;;;;;;;25.50;10.60;;;;;;;-0.84;100.00;100099.72;3677968;79;31071;-83
2022/11/20 00:16:45;;;;;;;27.30;11.12;;;;;;;-0.86;100.00;100108.16;3684980;78;99314;-82
2022/11/20 00:21:45;;;;;;;23.10;10.73;;;;;;;-0.89;100.00;100114.73;3676700;79;32222;-83
2022/11/20 00:26:46;;;;;;;23.63;11.87;;;;;;;-0.90;100.00;100119.86;3684679;79;99175;-83
2022/11/20 00:31:47;;;;;;;26.20;11.73;;;;;;;-0.89;100.00;100118.78;3684015;78;31657;-83
2022/11/20 00:36:48;;;;;;;24.67;11.20;;;;;;;-0.89;100.00;100120.91;3674118;78;98993;-81
2022/11/20 00:41:49;;;;;;;25.07;12.10;;;;;;;-0.89;100.00;100114.73;3682773;78;31332;-82
2022/11/20 00:46:50;;;;;;;27.30;11.17;;;;;;;-0.89;100.00;100110.11;3682466;78;98762;-82
2022/11/20 00:51:51;;;;;;;24.73;12.13;;;;;;;-0.90;100.00;100116.62;3679850;79;31097;-82
2022/11/20 00:56:55;;;;;;;28.70;12.80;;;;;;;-0.89;100.00;100122.26;3685381;78;99005;-81
2022/11/20 01:01:56;;;;;;;28.42;11.55;;;;;;;-0.90;100.00;100122.02;3690633;78;32229;-82
2022/11/20 01:06:56;;;;;;;26.43;12.67;;;;;;;-0.85;100.00;100125.14;3677865;79;98812;-81
2022/11/20 01:11:58;;;;;;;25.43;11.97;;;;;;;-0.85;100.00;100117.03;3684731;78;31621;-81
2022/11/20 01:16:59;;;;;;;25.37;12.57;;;;;;;-0.87;100.00;100123.31;3675757;78;99336;-82
2022/11/20 01:22:00;;;;;;;28.63;12.87;;;;;;;-0.91;100.00;100121.78;3695150;79;31528;-82
2022/11/20 01:27:01;;;;;;;23.40;10.67;;;;;;;-0.90;100.00;100121.21;3666793;78;99096;-82
2022/11/20 01:32:01;;;;;;;22.03;9.83;;;;;;;-0.91;100.00;100119.08;3684529;79;32017;-82
2022/11/20 01:37:02;;;;;;;22.20;9.90;;;;;;;-0.91;100.00;100123.13;3684248;79;98974;-81
2022/11/20 01:47:40;;;;;;;21.50;10.43;;;;;;;-0.96;100.00;100111.11;3692165;78;98967;-80
2022/11/20 01:53:04;;;;;;;23.45;10.50;;;;;;;-0.96;100.00;100126.50;3682892;79;29506;-80
2022/11/20 01:58:05;;;;;;;20.60;9.80;;;;;;;-0.94;100.00;100118.34;3687045;78;99015;-80
2022/11/20 02:03:12;;;;;;;26.10;10.97;;;;;;;-0.93;100.00;100119.92;3682989;78;35366;-80
2022/11/20 02:08:13;;;;;;;25.63;12.33;;;;;;;-0.94;100.00;100120.25;3683608;78;25933;-80
2022/11/20 02:18:33;;;;;;;23.95;11.25;;;;;;;-1.00;100.00;100107.42;3691102;79;28864;-80
2022/11/20 02:23:59;;;;;;;23.37;11.47;;;;;;;-0.96;100.00;100106.24;3674945;78;99302;-80
2022/11/20 02:29:03;;;;;;;24.25;11.35;;;;;;;-0.95;100.00;100104.59;3688493;79;26235;-79
2022/11/20 02:34:04;;;;;;;22.20;10.43;;;;;;;-0.96;100.00;100108.41;3675851;78;99219;-80
2022/11/20 02:39:06;;;;;;;26.73;11.90;;;;;;;-0.94;100.00;100105.41;3687706;78;35389;-80
2022/11/20 02:44:07;;;;;;;24.00;12.17;;;;;;;-0.92;100.00;100101.83;3676055;78;98949;-80
2022/11/20 02:49:08;;;;;;;22.00;11.00;;;;;;;-0.93;100.00;100104.29;3678961;79;35461;-80
2022/11/20 02:54:08;;;;;;;26.73;11.10;;;;;;;-0.98;100.00;100099.02;3677618;78;99252;-79
2022/11/20 02:59:09;;;;;;;27.83;12.83;;;;;;;-1.01;100.00;100092.33;3683373;79;35419;-80
2022/11/20 03:04:10;;;;;;;28.57;12.97;;;;;;;-1.01;100.00;100092.33;3684752;78;99031;-80
2022/11/20 03:09:12;;;;;;;30.30;15.60;;;;;;;-0.99;100.00;100090.67;3678400;78;34835;-80
2022/11/20 03:14:14;;;;;;;31.10;14.63;;;;;;;-1.00;100.00;100091.78;3674370;79;98943;-80
2022/11/20 03:19:15;;;;;;;35.07;15.60;;;;;;;-1.01;100.00;100090.16;3688031;78;34858;-79
2022/11/20 03:24:15;;;;;;;28.17;14.00;;;;;;;-1.04;100.00;100094.28;3675757;78;99390;-80
2022/11/20 03:29:16;;;;;;;31.97;15.33;;;;;;;-1.00;100.00;100087.73;3687409;79;34909;-79
2022/11/20 03:34:17;;;;;;;31.87;15.93;;;;;;;-0.96;100.00;100091.39;3689284;78;99293;-80
2022/11/20 03:39:18;;;;;;;29.37;14.45;;;;;;;-0.94;100.00;100090.55;3681526;78;34787;-79
2022/11/20 03:44:21;;;;;;;28.70;14.15;;;;;;;-0.95;100.00;100097.03;3671927;78;99130;-79
2022/11/20 03:49:22;;;;;;;30.08;15.08;;;;;;;-0.92;100.00;100089.13;3682192;79;31083;-80
2022/11/20 03:54:22;;;;;;;32.27;15.87;;;;;;;-0.90;100.00;100092.85;3673555;78;99495;-79
2022/11/20 03:59:23;;;;;;;32.87;16.13;;;;;;;-0.91;100.00;100093.96;3685236;78;33017;-79
2022/11/20 04:04:24;;;;;;;27.20;13.40;;;;;;;-0.91;100.00;100085.86;3686695;78;99187;-79
2022/11/20 04:09:25;;;;;;;28.43;13.67;;;;;;;-0.93;100.00;100079.98;3682047;79;32442;-79
2022/11/20 04:14:26;;;;;;;26.85;13.55;;;;;;;-0.91;100.00;100086.67;3671613;78;99367;-78
2022/11/20 04:19:26;;;;;;;31.83;15.50;;;;;;;-0.89;100.00;100091.77;3676610;78;33037;-78
2022/11/20 04:24:27;;;;;;;33.42;15.38;;;;;;;-0.89;100.00;100091.77;3681122;78;99298;-79
2022/11/20 04:29:28;;;;;;;33.10;15.50;;;;;;;-0.90;100.00;100096.91;3670282;79;26745;-79
2022/11/20 04:34:29;;;;;;;30.67;14.37;;;;;;;-0.87;100.00;100094.95;3678968;79;99250;-79
2022/11/20 04:39:29;;;;;;;30.77;15.13;;;;;;;-0.87;100.00;100077.39;3691919;78;25996;-79
2022/11/20 04:44:30;;;;;;;32.00;14.87;;;;;;;-0.85;100.00;100088.67;3674167;79;99251;-79
2022/11/20 04:49:31;;;;;;;30.10;15.07;;;;;;;-0.82;100.00;100078.04;3682772;78;26538;-79
2022/11/20 04:54:32;;;;;;;32.67;15.80;;;;;;;-0.80;100.00;100078.55;3671362;78;99477;-78
2022/11/20 04:59:32;;;;;;;27.90;13.93;;;;;;;-0.80;100.00;100077.73;3668507;79;25807;-78
2022/11/20 05:04:33;;;;;;;33.63;14.47;;;;;;;-0.78;100.00;100074.19;3667737;79;99244;-78
2022/11/20 05:09:34;;;;;;;34.80;16.10;;;;;;;-0.80;100.00;100070.44;3675930;78;33239;-78
2022/11/20 05:14:35;;;;;;;32.40;14.30;;;;;;;-0.75;100.00;100066.25;3661406;79;99245;-78
2022/11/20 05:19:36;;;;;;;30.80;14.33;;;;;;;-0.77;100.00;100068.45;3683776;79;33641;-79
2022/11/20 05:24:36;;;;;;;29.50;13.72;;;;;;;-0.78;100.00;100066.86;3670277;78;99297;-78
2022/11/20 05:29:37;;;;;;;35.43;15.97;;;;;;;-0.77;100.00;100067.10;3667328;78;33416;-78
2022/11/20 05:34:38;;;;;;;28.47;14.40;;;;;;;-0.78;100.00;100069.56;3669812;79;99460;-78
2022/11/20 05:39:38;;;;;;;26.37;13.47;;;;;;;-0.81;100.00;100066.70;3674373;78;32384;-79
2022/11/20 05:44:40;;;;;;;30.97;14.23;;;;;;;-0.80;100.00;100070.44;3663843;79;99113;-79
2022/11/20 05:49:40;;;;;;;31.63;13.87;;;;;;;-0.79;100.00;100069.88;3680785;79;31618;-78
2022/11/20 05:54:41;;;;;;;27.50;13.97;;;;;;;-0.79;100.00;100064.47;3674357;78;99258;-78
2022/11/20 05:59:42;;;;;;;26.90;12.27;;;;;;;-0.78;100.00;100057.41;3690084;79;31880;-78
2022/11/20 06:04:43;;;;;;;26.83;12.77;;;;;;;-0.77;100.00;100064.97;3684408;78;99276;-78
2022/11/20 06:09:44;;;;;;;23.63;11.70;;;;;;;-0.76;100.00;100060.61;3685566;78;31611;-78
2022/11/20 06:14:44;;;;;;;25.03;11.80;;;;;;;-0.73;100.00;100064.03;3676282;78;99186;-78
2022/11/20 06:19:45;;;;;;;29.47;13.47;;;;;;;-0.77;100.00;100061.70;3681438;78;29818;-78
2022/11/20 06:24:46;;;;;;;26.17;11.60;;;;;;;-0.78;100.00;100070.91;3680408;78;99417;-78
2022/11/20 06:29:47;;;;;;;28.40;13.87;;;;;;;-0.80;100.00;100066.39;3683993;78;35583;-79
2022/11/20 06:34:47;;;;;;;27.77;13.50;;;;;;;-0.80;100.00;100081.79;3689470;78;99353;-79
2022/11/20 06:39:48;;;;;;;28.97;13.70;;;;;;;-0.83;100.00;100077.80;3683253;78;34878;-78
2022/11/20 06:44:49;;;;;;;29.10;13.07;;;;;;;-0.89;100.00;100068.81;3673946;78;99496;-78
2022/11/20 06:49:50;;;;;;;31.87;15.23;;;;;;;-0.89;100.00;100066.89;3684520;78;34861;-79
2022/11/20 06:54:51;;;;;;;33.63;16.10;;;;;;;-0.92;100.00;100069.42;3666414;78;99012;-79
2022/11/20 06:59:51;;;;;;;32.20;14.40;;;;;;;-0.95;100.00;100081.63;3672556;78;34874;-79
2022/11/20 07:04:52;;;;;;;33.67;15.60;;;;;;;-0.92;100.00;100071.58;3667291;78;99706;-79
2022/11/20 07:09:53;;;;;;;33.57;14.67;;;;;;;-0.93;100.00;100068.61;3663253;78;32801;-79
2022/11/20 07:14:53;;;;;;;33.73;15.37;;;;;;;-0.88;100.00;100066.34;3670540;78;99391;-79
2022/11/20 07:19:54;;;;;;;34.73;15.70;;;;;;;-0.85;100.00;100061.12;3671081;78;26346;-78
2022/11/20 07:24:55;;;;;;;33.87;15.40;;;;;;;-0.85;100.00;100056.26;3670260;78;99272;-79
2022/11/20 07:29:56;;;;;;;27.97;13.20;;;;;;;-0.84;100.00;100062.70;3679847;78;32516;-78
2022/11/20 07:34:57;;;;;;;35.00;16.17;;;;;;;-0.84;100.00;100059.20;3672564;78;99195;-80
2022/11/20 07:39:57;;;;;;;35.23;15.83;;;;;;;-0.87;100.00;100055.78;3669746;78;32438;-79
2022/11/20 07:44:58;;;;;;;33.20;15.40;;;;;;;-0.88;100.00;100058.24;3674368;78;99379;-78
2022/11/20 07:49:59;;;;;;;35.30;16.90;;;;;;;-0.91;100.00;100055.61;3678543;78;27433;-79
2022/11/20 07:55:00;;;;;;;32.03;14.93;;;;;;;-0.90;100.00;100049.64;3662596;78;99107;-78
2022/11/20 08:00:01;;;;;;;34.77;16.40;;;;;;;-0.93;100.00;100044.30;3670639;78;25891;-79
2022/11/20 08:05:02;;;;;;;33.30;16.03;;;;;;;-0.91;100.00;100040.75;3665946;78;99297;-78
2022/11/20 08:10:03;;;;;;;35.90;17.02;;;;;;;-0.90;100.00;100038.30;3668712;78;26314;-79
2022/11/20 08:15:06;;;;;;;36.63;15.63;;;;;;;-0.86;99.91;100037.11;3660231;78;98942;-78
2022/11/20 08:20:08;;;;;;;36.50;17.63;;;;;;;-0.78;100.00;100030.39;3683717;78;26302;-79
2022/11/20 08:25:09;;;;;;;43.93;20.10;;;;;;;-0.73;100.00;100034.88;3669612;78;99085;-77
2022/11/20 08:30:11;;;;;;;38.70;19.23;;;;;;;-0.67;99.96;100031.70;3671516;78;26485;-77
2022/11/20 08:35:12;;;;;;;40.52;20.08;;;;;;;-0.58;99.68;100023.63;3666480;78;98802;-76
2022/11/20 08:40:14;;;;;;;38.30;18.13;;;;;;;-0.45;99.59;100022.73;3668960;78;26554;-77
2022/11/20 08:45:16;;;;;;;39.43;18.33;;;;;;;-0.31;99.43;100016.86;3665906;78;99063;-78
2022/11/20 08:50:17;;;;;;;40.83;19.07;;;;;;;-0.22;98.88;100014.75;3675978;78;29071;-77
2022/11/20 08:55:18;;;;;;;37.60;17.57;;;;;;;-0.12;99.00;100009.04;3670517;78;99068;-77
2022/11/20 09:00:19;;;;;;;39.00;17.67;;;;;;;-0.06;98.49;100004.49;3681499;78;25896;-77
2022/11/20 09:05:20;;;;;;;38.77;17.57;;;;;;;-0.01;97.86;100002.45;3668811;78;99136;-77
2022/11/20 09:10:20;;;;;;;36.10;16.87;;;;;;;0.08;97.70;100021.38;3671922;78;25883;-77
2022/11/20 09:15:22;;;;;;;33.43;16.03;;;;;;;0.05;97.38;100015.23;3667486;78;98966;-77
2022/11/20 09:20:24;;;;;;;34.10;15.17;;;;;;;0.11;97.65;100008.02;3672702;78;25778;-77
2022/11/20 09:25:25;;;;;;;36.23;17.90;;;;;;;0.21;97.59;100009.59;3665911;78;98780;-78
2022/11/20 09:30:27;;;;;;;35.57;17.43;;;;;;;0.19;96.67;100008.59;3674708;78;25846;-77
2022/11/20 09:35:28;;;;;;;37.03;18.00;;;;;;;0.25;96.42;100004.60;3668393;78;98811;-78
2022/11/20 09:40:29;;;;;;;32.97;17.37;;;;;;;0.29;96.03;100001.47;3676824;78;25867;-78
2022/11/20 09:46:09;;;;;;;37.30;16.33;;;;;;;0.33;95.35;100001.08;3660631;78;99177;-78
2022/11/20 09:51:36;;;;;;;35.90;15.33;;;;;;;0.33;94.94;99994.31;3665132;78;27403;-79
2022/11/20 09:56:42;;;;;;;34.33;15.95;;;;;;;0.38;95.06;99992.80;3660863;78;98146;-78
2022/11/20 10:01:44;;;;;;;34.77;16.07;;;;;;;0.44;95.02;99986.10;3672632;78;27466;-79
2022/11/20 10:07:13;;;;;;;39.60;17.50;;;;;;;0.54;94.20;99992.54;3660519;78;98260;-80
2022/11/20 10:12:32;;;;;;;32.97;16.53;;;;;;;0.59;94.62;99983.45;3666595;78;28684;-79
2022/11/20 10:18:11;;;;;;;38.23;17.27;;;;;;;0.54;93.47;99980.91;3658055;78;98143;-79
2022/11/20 10:23:41;;;;;;;41.43;18.70;;;;;;;0.54;94.14;99973.59;3669916;78;98620;-80
2022/11/20 10:28:50;;;;;;;38.95;17.95;;;;;;;0.62;93.48;99978.75;3672129;78;32246;-80
2022/11/20 10:33:53;;;;;;;39.42;18.73;;;;;;;0.66;93.54;99971.01;3671740;78;98782;-81
2022/11/20 10:39:09;;;;;;;36.88;16.93;;;;;;;0.69;93.65;99960.90;3669550;78;28768;-81
2022/11/20 10:49:37;;;;;;;37.03;17.13;;;;;;;0.81;93.29;99962.37;3677640;78;27706;-80
2022/11/20 10:54:52;;;;;;;37.83;17.07;;;;;;;0.81;93.04;99959.66;3667538;78;98528;-79
2022/11/20 11:00:01;;;;;;;42.70;19.60;;;;;;;0.80;92.37;99951.30;3676307;78;27594;-81
2022/11/20 11:05:35;;;;;;;40.05;19.82;;;;;;;0.76;91.95;99949.55;3665424;78;98504;-81
2022/11/20 11:10:51;;;;;;;40.23;18.17;;;;;;;0.74;91.81;99954.50;3673539;78;30609;-81
2022/11/20 11:15:54;;;;;;;42.07;19.60;;;;;;;0.72;91.83;99962.17;3666207;78;99080;-81
2022/11/20 11:20:57;;;;;;;42.07;19.97;;;;;;;0.71;91.99;99956.52;3675115;78;29675;-80
2022/11/20 11:26:00;;;;;;;39.50;18.65;;;;;;;0.74;92.01;99953.95;3662746;78;98796;-80
2022/11/20 11:31:01;;;;;;;43.20;20.40;;;;;;;0.79;91.90;99963.27;3674895;78;29939;-81
2022/11/20 11:36:07;;;;;;;36.63;17.20;;;;;;;0.74;91.54;99951.80;3666124;78;98901;-80
2022/11/20 11:41:17;;;;;;;;;;;;;;;0.70;91.42;99952.20;3676830;78;27404;-79
2022/11/20 11:46:33;;;;;;;39.80;18.13;;;;;;;0.71;91.23;99935.64;3667263;78;84100;-79
2022/11/20 11:51:57;;;;;;;35.33;16.85;;;;;;;0.76;91.53;99939.52;3675945;78;28341;-80
2022/11/20 11:57:04;;;;;;;36.70;17.05;;;;;;;0.76;91.58;99935.46;3673979;78;98258;-79
2022/11/20 12:02:08;;;;;;;;;;;;;;;0.80;91.63;99926.93;3680243;78;27377;-79
2022/11/20 12:07:21;;;;;;;37.48;16.05;;;;;;;0.79;90.66;99932.66;3683017;78;84397;-80
2022/11/20 12:12:34;;;;;;;41.63;19.37;;;;;;;0.69;90.82;99924.34;3680788;78;28393;-79
2022/11/20 12:17:35;;;;;;;41.20;18.00;;;;;;;0.67;90.98;99929.84;3677984;78;98318;-80
2022/11/20 12:22:45;;;;;;;43.87;21.17;;;;;;;0.61;91.00;99916.25;3686269;78;26022;-79
2022/11/20 12:28:30;;;;;;;45.38;21.12;;;;;;;0.59;90.68;99915.21;3674141;78;98158;-79
2022/11/20 12:33:36;;;;;;;56.73;22.32;;;;;;;0.55;90.72;99913.48;3668786;78;98278;-80
2022/11/20 12:38:57;;;;;;;;;;;;;;;0.50;90.40;99901.47;3686114;78;28275;-79
2022/11/20 12:50:13;;;;;;;38.80;18.00;;;;;;;0.45;90.74;99888.89;3677041;78;26654;-80
2022/11/20 12:55:49;;;;;;;49.97;21.20;;;;;;;0.43;90.91;99887.08;3673510;78;98482;-80
2022/11/20 13:01:08;;;;;;;45.12;21.02;;;;;;;0.49;91.24;99879.01;3673244;78;28751;-79
2022/11/20 13:06:18;;;;;;;51.80;23.62;;;;;;;0.52;91.60;99881.63;3674502;78;98694;-80
2022/11/20 13:11:25;;;;;;;51.77;24.57;;;;;;;0.59;91.81;99882.72;3677572;78;28779;-79
2022/11/20 13:16:44;;;;;;;;;;;;;;;0.63;91.73;99878.80;3676568;78;99307;-79
2022/11/20 13:21:51;;;;;;;55.03;22.90;;;;;;;0.68;91.63;99863.73;3670071;78;32437;-79
2022/11/20 13:27:17;;;;;;;57.08;25.90;;;;;;;0.69;91.77;99872.08;3669422;78;98831;-79
2022/11/20 13:32:21;;;;;;;54.75;24.25;;;;;;;0.71;91.30;99864.45;3675967;78;28306;-79
2022/11/20 13:37:30;;;;;;;55.38;25.23;;;;;;;0.69;91.60;99860.70;3668119;78;98562;-80
2022/11/20 13:42:31;;;;;;;47.37;22.03;;;;;;;0.71;91.53;99854.39;3676793;78;28805;-79
2022/11/20 13:47:31;;;;;;;50.93;24.87;;;;;;;0.71;91.20;99854.39;3668621;78;98831;-79
2022/11/20 13:52:44;;;;;;;55.27;25.10;;;;;;;0.68;91.07;99852.91;3671953;78;25884;-79
2022/11/20 13:57:59;;;;;;;52.47;23.87;;;;;;;0.65;90.89;99861.66;3669229;78;98601;-80
2022/11/20 14:03:18;;;;;;;53.03;23.43;;;;;;;0.64;91.14;99859.53;3670015;78;27488;-79
2022/11/20 14:08:38;;;;;;;51.40;23.50;;;;;;;0.64;91.16;99855.47;3679372;78;27536;-80
2022/11/20 14:13:40;;;;;;;48.57;21.60;;;;;;;0.64;91.03;99849.25;3677540;78;98633;-77
2022/11/20 14:18:40;;;;;;;50.00;23.97;;;;;;;0.65;91.37;99849.48;3660568;78;25922;-78
2022/11/20 14:23:41;;;;;;;56.23;24.73;;;;;;;0.68;91.56;99845.59;3666355;78;98534;-78
2022/11/20 14:28:50;;;;;;;58.27;26.07;;;;;;;0.72;91.51;99845.72;3674870;78;26839;-78
2022/11/20 14:33:54;;;;;;;55.37;27.33;;;;;;;0.68;91.11;99840.72;3667676;78;98738;-78
2022/11/20 14:38:55;;;;;;;58.30;26.03;;;;;;;0.68;91.28;99840.17;3670728;78;27642;-78
2022/11/20 14:43:59;;;;;;;54.70;25.97;;;;;;;0.67;90.89;99840.48;3669257;78;98212;-78
2022/11/20 14:49:03;;;;;;;53.77;25.93;;;;;;;0.66;90.96;99826.14;3667970;78;28679;-78
2022/11/20 14:54:22;;;;;;;67.70;35.47;;;;;;;0.66;91.14;99829.43;3663541;78;98895;-79
2022/11/20 14:59:29;;;;;;;75.50;35.00;;;;;;;0.65;90.80;99831.33;3680419;78;27423;-79
2022/11/20 15:04:30;;;;;;;73.22;31.77;;;;;;;0.60;90.81;99824.74;3662845;78;98733;-78
2022/11/20 15:09:31;;;;;;;68.17;31.13;;;;;;;0.60;91.06;99819.33;3675625;78;26314;-79
2022/11/20 15:14:32;;;;;;;73.10;35.23;;;;;;;0.63;91.24;99807.86;3663841;78;98778;-79
2022/11/20 15:19:34;;;;;;;70.60;32.40;;;;;;;0.64;91.31;99813.50;3670582;78;26494;-78
2022/11/20 15:24:35;;;;;;;76.20;35.60;;;;;;;0.64;91.51;99809.98;3649388;78;98611;-80
2022/11/20 15:29:36;;;;;;;69.60;32.13;;;;;;;0.65;91.71;99804.80;3675610;78;25977;-79
2022/11/20 15:34:36;;;;;;;69.57;31.57;;;;;;;0.66;91.69;99809.13;3676001;78;98474;-80
2022/11/20 15:39:37;;;;;;;86.77;36.13;;;;;;;0.65;91.64;99817.80;3681802;78;26613;-79
2022/11/20 15:44:38;;;;;;;117.40;49.87;;;;;;;0.66;91.44;99807.77;3661634;78;98888;-79
2022/11/20 15:49:39;;;;;;;81.57;37.00;;;;;;;0.62;91.11;99806.25;3683487;78;26142;-80
2022/11/20 15:54:39;;;;;;;81.40;38.10;;;;;;;0.58;91.33;99803.17;3650467;78;98591;-79
2022/11/20 15:59:41;;;;;;;92.67;40.57;;;;;;;0.59;91.82;99804.20;3659833;79;33241;-80
2022/11/20 16:04:42;;;;;;;79.40;35.00;;;;;;;0.63;92.01;99804.34;3654524;78;98261;-80
2022/11/20 16:09:43;;;;;;;78.70;37.23;;;;;;;0.65;91.97;99809.67;3661727;79;33177;-80
2022/11/20 16:20:03;;;;;;;82.90;38.30;;;;;;;0.67;92.12;99799.88;3659713;78;26241;-80
2022/11/20 16:25:05;;;;;;;78.07;35.87;;;;;;;0.60;92.00;99799.02;3647363;78;98398;-79
2022/11/20 16:30:07;;;;;;;82.23;36.57;;;;;;;0.56;91.63;99791.89;3640669;80;26525;-80
2022/11/20 16:35:09;;;;;;;64.27;30.77;;;;;;;0.52;91.74;99790.94;3650748;78;98615;-79
2022/11/20 16:40:11;;;;;;;63.70;30.53;;;;;;;0.48;91.77;99785.94;3660116;79;33232;-80
2022/11/20 16:45:12;;;;;;;64.15;28.75;;;;;;;0.45;91.79;99776.55;3647691;79;98680;-79
2022/11/20 16:50:13;;;;;;;65.73;29.30;;;;;;;0.43;92.11;99779.35;3660411;78;33776;-80
2022/11/20 16:55:14;;;;;;;61.23;28.90;;;;;;;0.43;92.07;99776.65;3681092;78;98322;-79
2022/11/20 17:00:15;;;;;;;65.57;29.80;;;;;;;0.43;92.28;99782.87;3689868;78;34198;-77
2022/11/20 17:05:16;;;;;;;75.70;32.50;;;;;;;0.45;92.54;99773.84;3678402;78;98530;-79
2022/11/20 17:10:17;;;;;;;73.47;32.00;;;;;;;0.49;92.39;99767.22;3587684;81;33711;-78
2022/11/20 17:15:17;;;;;;;66.60;31.37;;;;;;;0.49;92.35;99768.02;3646507;78;98365;-79
2022/11/20 17:20:18;;;;;;;63.90;30.50;;;;;;;0.47;92.26;99763.51;3564210;81;33261;-80
2022/11/20 17:25:19;;;;;;;67.33;31.17;;;;;;;0.48;92.20;99761.58;3645659;79;98575;-79
2022/11/20 17:30:20;;;;;;;62.33;28.00;;;;;;;0.46;92.02;99755.70;3649971;78;31701;-78
2022/11/20 17:35:20;;;;;;;67.93;29.67;;;;;;;0.42;91.95;99746.64;3640022;79;98536;-79
2022/11/20 17:40:21;;;;;;;59.60;29.00;;;;;;;0.43;91.78;99744.97;3655695;79;31644;-78
2022/11/20 17:45:22;;;;;;;65.92;30.30;;;;;;;0.42;91.93;99753.41;3590294;81;98589;-79
2022/11/20 17:50:23;;;;;;;73.43;33.17;;;;;;;0.40;92.09;99748.31;3654506;79;31927;-79
2022/11/20 17:55:24;;;;;;;71.00;34.18;;;;;;;0.44;92.36;99749.84;3536883;82;98757;-79
2022/11/20 18:00:26;;;;;;;84.70;39.50;;;;;;;0.45;92.34;99746.78;3654967;78;30712;-80
2022/11/20 18:05:27;;;;;;;81.30;38.60;;;;;;;0.47;92.56;99749.17;3529592;82;98333;-79
2022/11/20 18:10:30;;;;;;;74.13;35.53;;;;;;;0.45;92.79;99742.72;3656461;79;30889;-79
2022/11/20 18:15:30;;;;;;;79.60;37.95;;;;;;;0.45;92.87;99744.08;3561901;81;98677;-79
2022/11/20 18:20:31;;;;;;;76.60;36.10;;;;;;;0.42;93.03;99739.33;3660545;79;31595;-80
2022/11/20 18:25:32;;;;;;;78.30;37.13;;;;;;;0.42;92.94;99748.80;3646642;78;98274;-81
2022/11/20 18:30:35;;;;;;;86.07;37.17;;;;;;;0.46;92.73;99740.82;3654876;78;31730;-79
2022/11/20 18:35:35;;;;;;;72.90;34.90;;;;;;;0.41;92.14;99733.69;3642713;79;98591;-80
2022/11/20 18:40:36;;;;;;;75.50;36.20;;;;;;;0.36;92.60;99733.06;3609148;80;31953;-79
2022/11/20 18:45:37;;;;;;;71.50;34.73;;;;;;;0.36;92.47;99735.23;3648801;78;98300;-79
2022/11/20 18:50:38;;;;;;;78.70;35.90;;;;;;;0.33;92.77;99737.80;3650563;79;30378;-78
2022/11/20 18:55:39;;;;;;;85.03;37.73;;;;;;;0.29;92.45;99736.85;3650296;78;98621;-80
2022/11/20 19:00:40;;;;;;;79.53;37.23;;;;;;;0.27;92.42;99743.13;3647152;78;36018;-79
2022/11/20 19:05:41;;;;;;;91.17;41.27;;;;;;;0.25;92.52;99752.14;3635740;78;98357;-81
2022/11/20 19:10:42;;;;;;;72.53;33.80;;;;;;;0.21;92.58;99751.20;3649258;78;35567;-79
2022/11/20 19:15:43;;;;;;;69.60;28.67;;;;;;;0.21;92.61;99747.95;3645722;78;98633;-79
2022/11/20 19:20:44;;;;;;;68.77;32.20;;;;;;;0.17;92.54;99736.18;3650460;79;34824;-80
2022/11/20 19:25:44;;;;;;;66.57;29.30;;;;;;;0.16;92.46;99738.66;3657499;78;98241;-80
2022/11/20 19:30:45;;;;;;;66.70;28.17;;;;;;;0.13;92.62;99739.29;3682812;78;34943;-80
2022/11/20 19:35:46;;;;;;;62.67;29.63;;;;;;;0.08;92.90;99727.33;3681035;78;98516;-81
2022/11/20 19:40:47;;;;;;;65.47;29.12;;;;;;;0.06;92.99;99726.84;3682701;78;34884;-81
2022/11/20 19:45:47;;;;;;;70.87;32.37;;;;;;;0.08;93.16;99730.58;3684251;78;98684;-81
2022/11/20 19:50:49;;;;;;;66.37;32.00;;;;;;;0.07;93.16;99731.70;3680592;78;33824;-80
2022/11/20 19:55:57;;;;;;;65.55;30.40;;;;;;;0.08;93.20;99738.14;3677044;78;98735;-81
2022/11/20 20:01:09;;;;;;;70.80;32.13;;;;;;;0.10;93.21;99724.27;3682141;78;28175;-81
2022/11/20 20:06:20;;;;;;;73.57;32.33;;;;;;;0.13;93.24;99729.05;3677630;78;98514;-81
2022/11/20 20:11:24;;;;;;;76.73;35.13;;;;;;;0.15;93.36;99726.80;3678737;78;98710;-82
2022/11/20 20:16:27;;;;;;;63.70;31.33;;;;;;;0.14;93.10;99726.02;3685765;78;32026;-81
2022/11/20 20:26:28;;;;;;;64.93;30.50;;;;;;;0.09;92.82;99721.34;3841244;76;35482;-79
2022/11/20 20:31:33;;;;;;;64.85;31.48;;;;;;;0.01;93.03;99722.18;3621806;77;98626;-80
2022/11/20 20:36:33;;;;;;;66.02;29.60;;;;;;;-0.01;92.83;99723.05;3585957;80;32480;-80
2022/11/20 20:41:34;;;;;;;69.03;31.13;;;;;;;-0.02;92.90;99726.09;3570806;80;98338;-79
2022/11/20 20:46:35;;;;;;;56.97;27.60;;;;;;;-0.05;92.90;99716.14;3578063;80;34845;-80
2022/11/20 20:51:36;;;;;;;64.27;30.37;;;;;;;-0.06;93.19;99717.27;3499353;82;98485;-80
2022/11/20 20:56:37;;;;;;;63.07;30.30;;;;;;;-0.06;93.03;99724.02;3517436;81;99028;-81
2022/11/20 21:01:38;;;;;;;70.67;32.53;;;;;;;-0.12;92.96;99725.88;3557682;81;36063;-81
2022/11/20 21:06:38;;;;;;;65.43;30.57;;;;;;;-0.15;93.01;99728.66;3484683;81;98362;-79
2022/11/20 21:11:39;;;;;;;67.70;30.48;;;;;;;-0.21;93.31;99730.53;3446942;83;34912;-80
2022/11/20 21:16:42;;;;;;;69.13;33.87;;;;;;;-0.25;93.34;99734.98;3508819;81;98718;-80
2022/11/20 21:21:58;;;;;;;62.33;30.23;;;;;;;-0.31;92.95;99737.05;3529388;82;35494;-80
2022/11/20 21:27:01;;;;;;;48.83;21.77;;;;;;;-0.36;92.65;99733.74;3531418;81;98783;-80
2022/11/20 21:32:02;;;;;;;57.35;26.37;;;;;;;-0.45;92.87;99728.91;3530273;81;34924;-80
2022/11/20 21:37:04;;;;;;;71.60;31.10;;;;;;;-0.48;93.28;99730.11;3483126;82;98872;-80
2022/11/20 21:42:05;;;;;;;63.30;29.00;;;;;;;-0.58;92.75;99731.25;3497297;83;32751;-80
2022/11/20 21:47:06;;;;;;;67.90;30.07;;;;;;;-0.65;93.14;99732.84;3482274;83;98703;-80
2022/11/20 21:52:08;;;;;;;65.60;30.37;;;;;;;-0.71;92.96;99731.42;3489755;83;35082;-80
2022/11/20 21:57:08;;;;;;;60.67;28.30;;;;;;;-0.78;93.08;99725.14;3473840;83;98683;-80
2022/11/20 22:02:11;;;;;;;64.40;28.93;;;;;;;-0.81;93.19;99729.03;3472388;83;32449;-80
2022/11/20 22:07:12;;;;;;;57.38;26.02;;;;;;;-0.87;93.08;99723.02;3464249;82;98661;-79
2022/11/20 22:12:13;;;;;;;56.27;25.87;;;;;;;-0.93;93.55;99720.22;3468177;83;29654;-79
2022/11/20 22:17:13;;;;;;;61.40;25.63;;;;;;;-0.96;94.19;99719.52;3468158;83;98445;-80
2022/11/20 22:22:14;;;;;;;65.83;28.80;;;;;;;-0.99;94.25;99711.27;3471375;82;32494;-80
2022/11/20 22:27:15;;;;;;;59.27;25.90;;;;;;;-1.03;94.28;99699.50;3484195;82;98819;-79
2022/11/20 22:32:16;;;;;;;55.03;25.17;;;;;;;-1.04;94.04;99699.27;3480483;82;33690;-80
2022/11/20 22:37:17;;;;;;;55.27;25.70;;;;;;;-1.06;94.07;99692.83;3469509;82;98742;-80
2022/11/20 22:42:17;;;;;;;60.50;27.05;;;;;;;-1.10;94.11;99697.84;3481545;83;32449;-80
2022/11/20 22:47:18;;;;;;;63.03;28.33;;;;;;;-1.16;94.50;99704.52;3494205;82;98949;-80
2022/11/20 22:52:19;;;;;;;61.70;27.63;;;;;;;-1.21;94.12;99706.02;3490349;82;26423;-80
2022/11/20 22:57:20;;;;;;;63.68;27.48;;;;;;;-1.26;93.84;99708.88;3483301;82;99219;-79
2022/11/20 23:02:20;;;;;;;63.20;28.53;;;;;;;-1.32;94.73;99699.34;3490236;82;26235;-79
2022/11/20 23:07:21;;;;;;;82.90;33.93;;;;;;;-1.40;93.78;99699.56;3490406;82;98892;-80
2022/11/20 23:12:22;;;;;;;72.10;30.07;;;;;;;-1.44;94.81;99688.34;3501458;82;26555;-80
2022/11/20 23:17:23;;;;;;;70.00;28.13;;;;;;;-1.49;94.54;99681.21;3505295;82;98800;-80
2022/11/20 23:22:23;;;;;;;94.90;38.37;;;;;;;-1.51;94.27;99675.89;3506896;83;26464;-80
2022/11/20 23:27:24;;;;;;;95.33;42.23;;;;;;;-1.57;94.88;99671.77;3496114;83;98904;-80
2022/11/20 23:32:25;;;;;;;95.07;45.07;;;;;;;-1.61;95.26;99666.20;3600493;80;32686;-81
2022/11/20 23:37:26;;;;;;;118.27;50.57;;;;;;;-1.63;95.34;99660.88;3609891;81;98759;-82
2022/11/20 23:42:26;;;;;;;71.37;34.80;;;;;;;-1.67;95.38;99651.83;3608577;81;32732;-82
2022/11/20 23:47:27;;;;;;;55.00;25.73;;;;;;;-1.68;95.50;99647.55;3589308;80;98649;-82